West Little Rock, Arkansas
Current Conditions -  °F | °C
As of 1:53 AM on Thursday 29 Jan 2015 (Local Time) from KLIT Reporting Station
Scattered Clouds Scattered Clouds  
Wind Chill: 59°   Ceiling: Unl
Heat Index: 59°   Visibility: 10mi
Dew Point: 40°   Wind: 18mph
Humidity: 49%   Direction: 210°SSW
Pressure: 30.01"   Gusts: 28mph
Location:  34.78°N, 92.27°W
Report Text: KLIT 290753Z 21016G24KT 10SM FEW120 SCT250 15/04 A3001 RMK AO2 SLP165 T01500044
Loading
Personal Weather Stations






























Interactive Weather Map New forecast layout! Learn more

10-Day Weather Forecast

Advertisements
Track Severe Weather on mobile